sensor_id;sensor_type;location;lat;lon;timestamp;temperature;humidity
14727;DHT22;7454;51.256;8.176;2023-04-24T00:01:03;10.80;78.90
14727;DHT22;7454;51.256;8.176;2023-04-24T00:03:28;10.80;79.00
14727;DHT22;7454;51.256;8.176;2023-04-24T00:05:55;10.80;79.00
14727;DHT22;7454;51.256;8.176;2023-04-24T00:08:21;10.90;79.00
14727;DHT22;7454;51.256;8.176;2023-04-24T00:10:47;10.80;79.20
14727;DHT22;7454;51.256;8.176;2023-04-24T00:13:13;10.80;79.00
14727;DHT22;7454;51.256;8.176;2023-04-24T00:15:39;10.80;79.20
14727;DHT22;7454;51.256;8.176;2023-04-24T00:18:04;10.80;79.10
14727;DHT22;7454;51.256;8.176;2023-04-24T00:20:31;10.70;79.10
14727;DHT22;7454;51.256;8.176;2023-04-24T00:22:57;10.70;79.00
14727;DHT22;7454;51.256;8.176;2023-04-24T00:25:23;10.70;79.00
14727;DHT22;7454;51.256;8.176;2023-04-24T00:27:49;10.70;79.00
14727;DHT22;7454;51.256;8.176;2023-04-24T00:30:15;10.70;78.90
14727;DHT22;7454;51.256;8.176;2023-04-24T00:32:41;10.70;78.90
14727;DHT22;7454;51.256;8.176;2023-04-24T00:35:07;10.70;79.00
14727;DHT22;7454;51.256;8.176;2023-04-24T00:37:33;10.70;78.90
14727;DHT22;7454;51.256;8.176;2023-04-24T00:39:58;10.70;79.00
14727;DHT22;7454;51.256;8.176;2023-04-24T00:42:24;10.70;79.00
14727;DHT22;7454;51.256;8.176;2023-04-24T00:44:51;10.80;79.00
14727;DHT22;7454;51.256;8.176;2023-04-24T00:47:17;10.80;78.90
14727;DHT22;7454;51.256;8.176;2023-04-24T00:49:44;10.80;79.00
14727;DHT22;7454;51.256;8.176;2023-04-24T00:52:10;10.80;78.90
14727;DHT22;7454;51.256;8.176;2023-04-24T00:54:36;10.80;78.90
14727;DHT22;7454;51.256;8.176;2023-04-24T00:57:02;10.80;79.00
14727;DHT22;7454;51.256;8.176;2023-04-24T00:59:28;10.90;79.00
14727;DHT22;7454;51.256;8.176;2023-04-24T01:01:55;10.80;78.90
14727;DHT22;7454;51.256;8.176;2023-04-24T01:04:21;10.80;79.00
14727;DHT22;7454;51.256;8.176;2023-04-24T01:06:47;10.80;78.90
14727;DHT22;7454;51.256;8.176;2023-04-24T01:09:14;10.80;79.00
14727;DHT22;7454;51.256;8.176;2023-04-24T01:11:41;10.90;78.90
14727;DHT22;7454;51.256;8.176;2023-04-24T01:14:07;10.80;78.90
14727;DHT22;7454;51.256;8.176;2023-04-24T01:16:33;10.90;79.00
14727;DHT22;7454;51.256;8.176;2023-04-24T01:19:00;10.90;78.90
14727;DHT22;7454;51.256;8.176;2023-04-24T01:21:26;10.90;79.10
14727;DHT22;7454;51.256;8.176;2023-04-24T01:23:56;10.80;79.10
14727;DHT22;7454;51.256;8.176;2023-04-24T01:26:22;11.00;79.20
14727;DHT22;7454;51.256;8.176;2023-04-24T01:28:48;10.90;79.20
14727;DHT22;7454;51.256;8.176;2023-04-24T01:31:14;10.90;79.10
14727;DHT22;7454;51.256;8.176;2023-04-24T01:33:41;10.90;79.20
14727;DHT22;7454;51.256;8.176;2023-04-24T01:36:07;10.90;79.20
14727;DHT22;7454;51.256;8.176;2023-04-24T01:38:34;10.90;79.20
14727;DHT22;7454;51.256;8.176;2023-04-24T01:41:00;10.90;79.30
14727;DHT22;7454;51.256;8.176;2023-04-24T01:43:26;10.80;79.20
14727;DHT22;7454;51.256;8.176;2023-04-24T01:45:52;10.90;79.40
14727;DHT22;7454;51.256;8.176;2023-04-24T01:48:17;10.90;79.40
14727;DHT22;7454;51.256;8.176;2023-04-24T01:50:43;10.90;79.60
14727;DHT22;7454;51.256;8.176;2023-04-24T01:53:11;10.90;79.40
14727;DHT22;7454;51.256;8.176;2023-04-24T01:55:37;10.90;79.40
14727;DHT22;7454;51.256;8.176;2023-04-24T01:58:02;10.90;79.40
14727;DHT22;7454;51.256;8.176;2023-04-24T02:00:31;10.80;79.40
14727;DHT22;7454;51.256;8.176;2023-04-24T02:02:57;10.80;79.40
14727;DHT22;7454;51.256;8.176;2023-04-24T02:05:24;10.80;79.50
14727;DHT22;7454;51.256;8.176;2023-04-24T02:07:50;10.80;79.50
14727;DHT22;7454;51.256;8.176;2023-04-24T02:10:16;10.80;79.50
14727;DHT22;7454;51.256;8.176;2023-04-24T02:12:42;10.80;79.60
14727;DHT22;7454;51.256;8.176;2023-04-24T02:15:08;10.80;79.60
14727;DHT22;7454;51.256;8.176;2023-04-24T02:17:36;10.80;79.50
14727;DHT22;7454;51.256;8.176;2023-04-24T02:20:03;10.80;79.50
14727;DHT22;7454;51.256;8.176;2023-04-24T02:22:30;10.70;79.50
14727;DHT22;7454;51.256;8.176;2023-04-24T02:24:56;10.70;79.50
14727;DHT22;7454;51.256;8.176;2023-04-24T02:27:22;10.90;79.70
14727;DHT22;7454;51.256;8.176;2023-04-24T02:29:47;10.80;79.70
14727;DHT22;7454;51.256;8.176;2023-04-24T02:32:13;10.80;79.70
14727;DHT22;7454;51.256;8.176;2023-04-24T02:34:42;10.80;79.70
14727;DHT22;7454;51.256;8.176;2023-04-24T02:37:08;10.80;79.70
14727;DHT22;7454;51.256;8.176;2023-04-24T02:39:35;10.80;79.70
14727;DHT22;7454;51.256;8.176;2023-04-24T02:42:01;10.80;79.70
14727;DHT22;7454;51.256;8.176;2023-04-24T02:44:27;10.80;79.80
14727;DHT22;7454;51.256;8.176;2023-04-24T02:46:53;10.70;79.70
14727;DHT22;7454;51.256;8.176;2023-04-24T02:49:18;10.70;79.70
14727;DHT22;7454;51.256;8.176;2023-04-24T02:51:44;10.70;79.80
14727;DHT22;7454;51.256;8.176;2023-04-24T02:54:10;10.60;79.80
14727;DHT22;7454;51.256;8.176;2023-04-24T02:56:36;10.70;79.80
14727;DHT22;7454;51.256;8.176;2023-04-24T02:59:03;10.70;79.80
14727;DHT22;7454;51.256;8.176;2023-04-24T03:01:29;10.70;79.90
14727;DHT22;7454;51.256;8.176;2023-04-24T03:03:55;10.70;79.80
14727;DHT22;7454;51.256;8.176;2023-04-24T03:06:21;10.70;79.90
14727;DHT22;7454;51.256;8.176;2023-04-24T03:08:46;10.60;79.90
14727;DHT22;7454;51.256;8.176;2023-04-24T03:11:25;10.60;79.90
14727;DHT22;7454;51.256;8.176;2023-04-24T03:13:51;10.60;80.00
14727;DHT22;7454;51.256;8.176;2023-04-24T03:16:18;10.60;80.00
14727;DHT22;7454;51.256;8.176;2023-04-24T03:18:45;10.60;80.20
14727;DHT22;7454;51.256;8.176;2023-04-24T03:21:12;10.60;80.20
14727;DHT22;7454;51.256;8.176;2023-04-24T03:23:38;10.60;80.20
14727;DHT22;7454;51.256;8.176;2023-04-24T03:26:04;10.60;80.00
14727;DHT22;7454;51.256;8.176;2023-04-24T03:28:30;10.20;79.60
14727;DHT22;7454;51.256;8.176;2023-04-24T03:30:59;10.10;79.50
14727;DHT22;7454;51.256;8.176;2023-04-24T03:33:28;9.80;79.60
14727;DHT22;7454;51.256;8.176;2023-04-24T03:35:59;9.70;79.80
14727;DHT22;7454;51.256;8.176;2023-04-24T03:38:26;9.70;79.80
14727;DHT22;7454;51.256;8.176;2023-04-24T03:41:02;9.60;79.80
14727;DHT22;7454;51.256;8.176;2023-04-24T03:43:45;9.50;79.70
14727;DHT22;7454;51.256;8.176;2023-04-24T03:46:11;9.60;79.90
14727;DHT22;7454;51.256;8.176;2023-04-24T03:48:41;9.50;79.80
14727;DHT22;7454;51.256;8.176;2023-04-24T03:51:08;9.60;79.80
14727;DHT22;7454;51.256;8.176;2023-04-24T03:53:35;9.60;80.00
14727;DHT22;7454;51.256;8.176;2023-04-24T03:56:01;9.50;79.80
14727;DHT22;7454;51.256;8.176;2023-04-24T03:58:28;9.50;79.70
14727;DHT22;7454;51.256;8.176;2023-04-24T04:00:55;9.40;79.70
14727;DHT22;7454;51.256;8.176;2023-04-24T04:03:45;9.40;79.70
14727;DHT22;7454;51.256;8.176;2023-04-24T04:06:10;9.40;79.80
14727;DHT22;7454;51.256;8.176;2023-04-24T04:08:38;9.40;79.70
14727;DHT22;7454;51.256;8.176;2023-04-24T04:11:04;9.30;79.80
14727;DHT22;7454;51.256;8.176;2023-04-24T04:13:30;9.30;79.70
14727;DHT22;7454;51.256;8.176;2023-04-24T04:15:56;9.20;79.60
14727;DHT22;7454;51.256;8.176;2023-04-24T04:18:22;9.30;79.70
14727;DHT22;7454;51.256;8.176;2023-04-24T04:20:48;9.40;79.70
14727;DHT22;7454;51.256;8.176;2023-04-24T04:23:14;9.20;79.50
14727;DHT22;7454;51.256;8.176;2023-04-24T04:25:50;9.10;79.30
14727;DHT22;7454;51.256;8.176;2023-04-24T04:28:20;9.10;79.30
14727;DHT22;7454;51.256;8.176;2023-04-24T04:30:47;9.00;79.20
14727;DHT22;7454;51.256;8.176;2023-04-24T04:33:14;9.00;79.30
14727;DHT22;7454;51.256;8.176;2023-04-24T04:35:40;9.00;79.30
14727;DHT22;7454;51.256;8.176;2023-04-24T04:38:07;9.00;79.20
14727;DHT22;7454;51.256;8.176;2023-04-24T04:40:59;9.00;79.30
14727;DHT22;7454;51.256;8.176;2023-04-24T04:43:28;8.90;79.20
14727;DHT22;7454;51.256;8.176;2023-04-24T04:45:57;8.90;79.20
14727;DHT22;7454;51.256;8.176;2023-04-24T04:48:41;8.90;79.20
14727;DHT22;7454;51.256;8.176;2023-04-24T04:51:08;9.00;79.20
14727;DHT22;7454;51.256;8.176;2023-04-24T04:53:35;8.90;79.10
14727;DHT22;7454;51.256;8.176;2023-04-24T04:56:01;8.90;79.10
14727;DHT22;7454;51.256;8.176;2023-04-24T04:58:34;8.80;79.20
14727;DHT22;7454;51.256;8.176;2023-04-24T05:01:01;8.90;79.20
14727;DHT22;7454;51.256;8.176;2023-04-24T05:03:32;8.80;79.10
14727;DHT22;7454;51.256;8.176;2023-04-24T05:06:02;8.80;79.00
14727;DHT22;7454;51.256;8.176;2023-04-24T05:08:40;8.80;79.00
14727;DHT22;7454;51.256;8.176;2023-04-24T05:11:09;8.80;79.00
14727;DHT22;7454;51.256;8.176;2023-04-24T05:13:37;8.80;79.10
14727;DHT22;7454;51.256;8.176;2023-04-24T05:16:06;8.90;79.10
14727;DHT22;7454;51.256;8.176;2023-04-24T05:18:33;8.70;78.90
14727;DHT22;7454;51.256;8.176;2023-04-24T05:21:00;8.80;79.00
14727;DHT22;7454;51.256;8.176;2023-04-24T05:23:27;8.80;78.80
14727;DHT22;7454;51.256;8.176;2023-04-24T05:25:54;8.80;78.70
14727;DHT22;7454;51.256;8.176;2023-04-24T05:28:20;8.80;78.60
14727;DHT22;7454;51.256;8.176;2023-04-24T05:30:56;8.80;78.60
14727;DHT22;7454;51.256;8.176;2023-04-24T05:33:24;8.80;78.70
14727;DHT22;7454;51.256;8.176;2023-04-24T05:35:49;8.80;78.70
14727;DHT22;7454;51.256;8.176;2023-04-24T05:38:16;8.80;78.80
14727;DHT22;7454;51.256;8.176;2023-04-24T05:40:45;8.90;78.70
14727;DHT22;7454;51.256;8.176;2023-04-24T05:43:11;8.90;78.70
14727;DHT22;7454;51.256;8.176;2023-04-24T05:45:39;8.90;78.80
14727;DHT22;7454;51.256;8.176;2023-04-24T05:48:05;9.00;78.50
14727;DHT22;7454;51.256;8.176;2023-04-24T05:50:32;9.00;78.60
14727;DHT22;7454;51.256;8.176;2023-04-24T05:52:58;9.10;78.60
14727;DHT22;7454;51.256;8.176;2023-04-24T05:55:28;8.90;78.30
14727;DHT22;7454;51.256;8.176;2023-04-24T05:57:54;9.00;78.40
14727;DHT22;7454;51.256;8.176;2023-04-24T06:00:20;8.90;78.30
14727;DHT22;7454;51.256;8.176;2023-04-24T06:02:54;8.90;78.50
14727;DHT22;7454;51.256;8.176;2023-04-24T06:05:21;9.00;78.50
14727;DHT22;7454;51.256;8.176;2023-04-24T06:07:47;9.00;78.40
14727;DHT22;7454;51.256;8.176;2023-04-24T06:10:14;9.10;78.50
14727;DHT22;7454;51.256;8.176;2023-04-24T06:12:42;9.10;78.40
14727;DHT22;7454;51.256;8.176;2023-04-24T06:15:15;9.10;78.50
14727;DHT22;7454;51.256;8.176;2023-04-24T06:18:02;9.10;78.40
14727;DHT22;7454;51.256;8.176;2023-04-24T06:20:31;9.10;78.60
14727;DHT22;7454;51.256;8.176;2023-04-24T06:22:56;9.20;78.40
14727;DHT22;7454;51.256;8.176;2023-04-24T06:25:24;9.20;78.40
14727;DHT22;7454;51.256;8.176;2023-04-24T06:27:51;9.20;78.30
14727;DHT22;7454;51.256;8.176;2023-04-24T06:30:16;9.20;78.30
14727;DHT22;7454;51.256;8.176;2023-04-24T06:32:43;9.10;78.30
14727;DHT22;7454;51.256;8.176;2023-04-24T06:35:09;9.20;78.50
14727;DHT22;7454;51.256;8.176;2023-04-24T06:37:38;9.20;78.40
14727;DHT22;7454;51.256;8.176;2023-04-24T06:40:04;9.30;78.50
14727;DHT22;7454;51.256;8.176;2023-04-24T06:42:31;9.30;78.50
14727;DHT22;7454;51.256;8.176;2023-04-24T06:44:57;9.30;78.40
14727;DHT22;7454;51.256;8.176;2023-04-24T06:47:23;9.30;78.30
14727;DHT22;7454;51.256;8.176;2023-04-24T06:49:52;9.30;78.30
14727;DHT22;7454;51.256;8.176;2023-04-24T06:52:18;9.30;78.20
14727;DHT22;7454;51.256;8.176;2023-04-24T06:54:44;9.30;78.40
14727;DHT22;7454;51.256;8.176;2023-04-24T06:57:10;9.30;78.40
14727;DHT22;7454;51.256;8.176;2023-04-24T06:59:36;9.40;78.30
14727;DHT22;7454;51.256;8.176;2023-04-24T07:02:02;9.50;78.40
14727;DHT22;7454;51.256;8.176;2023-04-24T07:04:28;9.60;78.40
14727;DHT22;7454;51.256;8.176;2023-04-24T07:07:02;9.60;78.60
14727;DHT22;7454;51.256;8.176;2023-04-24T07:09:28;9.60;78.30
14727;DHT22;7454;51.256;8.176;2023-04-24T07:11:54;9.70;78.30
14727;DHT22;7454;51.256;8.176;2023-04-24T07:14:21;9.60;78.10
14727;DHT22;7454;51.256;8.176;2023-04-24T07:16:48;9.60;78.20
14727;DHT22;7454;51.256;8.176;2023-04-24T07:19:14;9.60;78.10
14727;DHT22;7454;51.256;8.176;2023-04-24T07:21:39;9.60;78.10
14727;DHT22;7454;51.256;8.176;2023-04-24T07:24:06;9.60;78.10
14727;DHT22;7454;51.256;8.176;2023-04-24T07:26:36;9.60;78.00
14727;DHT22;7454;51.256;8.176;2023-04-24T07:29:02;9.60;78.10
14727;DHT22;7454;51.256;8.176;2023-04-24T07:31:28;9.60;78.00
14727;DHT22;7454;51.256;8.176;2023-04-24T07:33:54;9.70;78.10
14727;DHT22;7454;51.256;8.176;2023-04-24T07:36:23;9.60;78.10
14727;DHT22;7454;51.256;8.176;2023-04-24T07:38:49;9.60;78.00
14727;DHT22;7454;51.256;8.176;2023-04-24T07:41:15;9.50;78.00
14727;DHT22;7454;51.256;8.176;2023-04-24T07:43:41;9.50;78.10
14727;DHT22;7454;51.256;8.176;2023-04-24T07:46:10;9.50;77.80
14727;DHT22;7454;51.256;8.176;2023-04-24T07:48:36;9.40;77.90
14727;DHT22;7454;51.256;8.176;2023-04-24T07:51:02;9.40;78.00
14727;DHT22;7454;51.256;8.176;2023-04-24T07:53:28;9.40;77.90
14727;DHT22;7454;51.256;8.176;2023-04-24T07:55:57;9.40;78.00
14727;DHT22;7454;51.256;8.176;2023-04-24T07:58:23;9.40;78.00
14727;DHT22;7454;51.256;8.176;2023-04-24T08:00:48;9.30;78.10
14727;DHT22;7454;51.256;8.176;2023-04-24T08:03:14;9.30;78.10
14727;DHT22;7454;51.256;8.176;2023-04-24T08:05:43;9.30;78.10
14727;DHT22;7454;51.256;8.176;2023-04-24T08:08:09;9.40;78.20
14727;DHT22;7454;51.256;8.176;2023-04-24T08:10:35;9.30;78.30
14727;DHT22;7454;51.256;8.176;2023-04-24T08:13:00;9.30;78.30
14727;DHT22;7454;51.256;8.176;2023-04-24T08:15:27;9.40;78.40
14727;DHT22;7454;51.256;8.176;2023-04-24T08:17:53;9.40;78.40
14727;DHT22;7454;51.256;8.176;2023-04-24T08:20:19;9.30;78.20
14727;DHT22;7454;51.256;8.176;2023-04-24T08:22:45;9.40;78.30
14727;DHT22;7454;51.256;8.176;2023-04-24T08:25:12;9.40;78.40
14727;DHT22;7454;51.256;8.176;2023-04-24T08:27:38;9.30;78.20
14727;DHT22;7454;51.256;8.176;2023-04-24T08:30:04;9.40;78.20
14727;DHT22;7454;51.256;8.176;2023-04-24T08:32:31;9.40;78.30
14727;DHT22;7454;51.256;8.176;2023-04-24T08:35:00;9.40;78.30
14727;DHT22;7454;51.256;8.176;2023-04-24T08:37:26;9.40;78.80
14727;DHT22;7454;51.256;8.176;2023-04-24T08:39:52;9.40;78.60
14727;DHT22;7454;51.256;8.176;2023-04-24T08:42:19;9.40;78.80
14727;DHT22;7454;51.256;8.176;2023-04-24T08:44:45;9.50;79.00
14727;DHT22;7454;51.256;8.176;2023-04-24T08:47:11;9.40;78.90
14727;DHT22;7454;51.256;8.176;2023-04-24T08:49:37;9.40;79.10
14727;DHT22;7454;51.256;8.176;2023-04-24T08:52:06;9.40;78.80
14727;DHT22;7454;51.256;8.176;2023-04-24T08:54:34;9.30;78.80
14727;DHT22;7454;51.256;8.176;2023-04-24T08:57:00;9.30;79.10
14727;DHT22;7454;51.256;8.176;2023-04-24T08:59:29;9.40;79.10
14727;DHT22;7454;51.256;8.176;2023-04-24T09:01:55;9.40;79.00
14727;DHT22;7454;51.256;8.176;2023-04-24T09:04:22;9.40;78.80
14727;DHT22;7454;51.256;8.176;2023-04-24T09:06:58;9.30;79.00
14727;DHT22;7454;51.256;8.176;2023-04-24T09:09:25;9.30;79.10
14727;DHT22;7454;51.256;8.176;2023-04-24T09:11:52;9.30;79.20
14727;DHT22;7454;51.256;8.176;2023-04-24T09:14:20;9.40;79.30
14727;DHT22;7454;51.256;8.176;2023-04-24T09:16:47;9.30;79.30
14727;DHT22;7454;51.256;8.176;2023-04-24T09:19:13;9.30;79.20
14727;DHT22;7454;51.256;8.176;2023-04-24T09:21:39;9.30;79.20
14727;DHT22;7454;51.256;8.176;2023-04-24T09:24:08;9.20;78.90
14727;DHT22;7454;51.256;8.176;2023-04-24T09:26:43;9.10;79.10
14727;DHT22;7454;51.256;8.176;2023-04-24T09:29:13;9.10;79.20
14727;DHT22;7454;51.256;8.176;2023-04-24T09:31:43;8.90;79.00
14727;DHT22;7454;51.256;8.176;2023-04-24T09:34:10;8.90;78.80
14727;DHT22;7454;51.256;8.176;2023-04-24T09:36:39;8.80;78.70
14727;DHT22;7454;51.256;8.176;2023-04-24T09:39:08;8.80;78.70
14727;DHT22;7454;51.256;8.176;2023-04-24T09:41:43;8.80;78.70
14727;DHT22;7454;51.256;8.176;2023-04-24T09:44:11;8.70;78.90
14727;DHT22;7454;51.256;8.176;2023-04-24T09:46:50;8.80;78.90
14727;DHT22;7454;51.256;8.176;2023-04-24T09:49:23;8.80;78.80
14727;DHT22;7454;51.256;8.176;2023-04-24T09:51:50;8.70;78.80
14727;DHT22;7454;51.256;8.176;2023-04-24T09:54:17;8.70;78.70
14727;DHT22;7454;51.256;8.176;2023-04-24T09:56:44;8.70;78.90
14727;DHT22;7454;51.256;8.176;2023-04-24T09:59:13;8.70;79.10
14727;DHT22;7454;51.256;8.176;2023-04-24T10:01:40;8.60;78.90
14727;DHT22;7454;51.256;8.176;2023-04-24T10:04:19;8.60;78.90
14727;DHT22;7454;51.256;8.176;2023-04-24T10:06:54;8.50;79.00
14727;DHT22;7454;51.256;8.176;2023-04-24T10:09:22;8.40;78.90
14727;DHT22;7454;51.256;8.176;2023-04-24T10:11:49;8.40;78.90
14727;DHT22;7454;51.256;8.176;2023-04-24T10:14:19;8.30;79.10
14727;DHT22;7454;51.256;8.176;2023-04-24T10:16:48;8.20;79.00
14727;DHT22;7454;51.256;8.176;2023-04-24T10:19:15;8.20;79.20
14727;DHT22;7454;51.256;8.176;2023-04-24T10:21:42;8.20;79.20
14727;DHT22;7454;51.256;8.176;2023-04-24T10:24:12;8.20;79.30
14727;DHT22;7454;51.256;8.176;2023-04-24T10:26:39;8.10;79.40
14727;DHT22;7454;51.256;8.176;2023-04-24T10:29:06;8.20;79.50
14727;DHT22;7454;51.256;8.176;2023-04-24T10:31:36;8.20;79.50
14727;DHT22;7454;51.256;8.176;2023-04-24T10:34:02;8.20;79.50
14727;DHT22;7454;51.256;8.176;2023-04-24T10:36:28;8.40;79.50
14727;DHT22;7454;51.256;8.176;2023-04-24T10:38:57;8.30;79.70
14727;DHT22;7454;51.256;8.176;2023-04-24T10:41:25;8.30;79.70
14727;DHT22;7454;51.256;8.176;2023-04-24T10:46:32;8.50;79.90
14727;DHT22;7454;51.256;8.176;2023-04-24T10:48:58;8.30;79.60
14727;DHT22;7454;51.256;8.176;2023-04-24T10:51:24;8.40;79.70
14727;DHT22;7454;51.256;8.176;2023-04-24T10:54:21;8.40;79.70
14727;DHT22;7454;51.256;8.176;2023-04-24T10:56:48;8.20;79.30
14727;DHT22;7454;51.256;8.176;2023-04-24T10:59:19;8.20;79.50
14727;DHT22;7454;51.256;8.176;2023-04-24T11:01:53;8.20;79.50
14727;DHT22;7454;51.256;8.176;2023-04-24T11:04:29;8.20;79.60
14727;DHT22;7454;51.256;8.176;2023-04-24T11:06:57;8.20;79.40
14727;DHT22;7454;51.256;8.176;2023-04-24T11:09:23;8.10;79.40
14727;DHT22;7454;51.256;8.176;2023-04-24T11:11:53;8.10;79.50
14727;DHT22;7454;51.256;8.176;2023-04-24T11:14:28;8.00;79.40
14727;DHT22;7454;51.256;8.176;2023-04-24T11:16:54;8.10;79.60
14727;DHT22;7454;51.256;8.176;2023-04-24T11:19:21;8.20;79.40
14727;DHT22;7454;51.256;8.176;2023-04-24T11:21:55;8.00;79.10
14727;DHT22;7454;51.256;8.176;2023-04-24T11:30:17;8.20;79.70
14727;DHT22;7454;51.256;8.176;2023-04-24T11:37:50;8.40;79.60
14727;DHT22;7454;51.256;8.176;2023-04-24T11:40:17;8.40;79.40
14727;DHT22;7454;51.256;8.176;2023-04-24T11:42:46;8.20;79.00
14727;DHT22;7454;51.256;8.176;2023-04-24T11:45:14;8.30;79.30
14727;DHT22;7454;51.256;8.176;2023-04-24T11:47:50;8.40;79.10
14727;DHT22;7454;51.256;8.176;2023-04-24T11:50:17;8.40;79.30
14727;DHT22;7454;51.256;8.176;2023-04-24T11:52:48;8.60;79.50
14727;DHT22;7454;51.256;8.176;2023-04-24T11:57:47;8.60;79.30
14727;DHT22;7454;51.256;8.176;2023-04-24T12:00:18;8.80;79.60
14727;DHT22;7454;51.256;8.176;2023-04-24T12:02:48;9.00;79.90
14727;DHT22;7454;51.256;8.176;2023-04-24T12:05:27;8.80;79.60
14727;DHT22;7454;51.256;8.176;2023-04-24T12:07:53;8.90;79.50
14727;DHT22;7454;51.256;8.176;2023-04-24T12:10:26;9.10;79.70
14727;DHT22;7454;51.256;8.176;2023-04-24T12:12:54;9.00;79.70
14727;DHT22;7454;51.256;8.176;2023-04-24T12:15:21;9.00;79.60
14727;DHT22;7454;51.256;8.176;2023-04-24T12:17:50;9.00;79.40
14727;DHT22;7454;51.256;8.176;2023-04-24T12:20:16;8.90;79.40
14727;DHT22;7454;51.256;8.176;2023-04-24T12:25:15;8.80;79.30
14727;DHT22;7454;51.256;8.176;2023-04-24T12:27:43;8.90;79.50
14727;DHT22;7454;51.256;8.176;2023-04-24T12:30:13;8.90;79.50
14727;DHT22;7454;51.256;8.176;2023-04-24T12:32:45;8.80;79.70
14727;DHT22;7454;51.256;8.176;2023-04-24T12:35:12;8.70;79.60
14727;DHT22;7454;51.256;8.176;2023-04-24T12:37:41;8.70;79.80
14727;DHT22;7454;51.256;8.176;2023-04-24T12:40:09;8.70;80.00
14727;DHT22;7454;51.256;8.176;2023-04-24T12:42:42;8.80;80.00
14727;DHT22;7454;51.256;8.176;2023-04-24T12:45:15;8.70;79.90
14727;DHT22;7454;51.256;8.176;2023-04-24T12:47:42;8.90;79.80
14727;DHT22;7454;51.256;8.176;2023-04-24T12:50:09;8.90;79.60
14727;DHT22;7454;51.256;8.176;2023-04-24T12:52:36;9.00;79.90
14727;DHT22;7454;51.256;8.176;2023-04-24T12:55:02;8.80;79.70
14727;DHT22;7454;51.256;8.176;2023-04-24T12:57:30;8.80;79.50
14727;DHT22;7454;51.256;8.176;2023-04-24T12:59:56;8.90;79.50
14727;DHT22;7454;51.256;8.176;2023-04-24T13:02:24;8.90;79.70
14727;DHT22;7454;51.256;8.176;2023-04-24T13:04:50;8.90;79.60
14727;DHT22;7454;51.256;8.176;2023-04-24T13:07:17;9.00;79.50
14727;DHT22;7454;51.256;8.176;2023-04-24T13:09:43;9.20;79.50
14727;DHT22;7454;51.256;8.176;2023-04-24T13:12:10;9.20;79.00
14727;DHT22;7454;51.256;8.176;2023-04-24T13:14:36;9.30;79.20
14727;DHT22;7454;51.256;8.176;2023-04-24T13:17:02;9.60;79.40
14727;DHT22;7454;51.256;8.176;2023-04-24T13:19:29;9.60;79.20
14727;DHT22;7454;51.256;8.176;2023-04-24T13:21:55;9.80;79.40
14727;DHT22;7454;51.256;8.176;2023-04-24T13:24:23;9.90;79.40
14727;DHT22;7454;51.256;8.176;2023-04-24T13:26:53;10.00;79.20
14727;DHT22;7454;51.256;8.176;2023-04-24T13:29:20;9.80;78.70
14727;DHT22;7454;51.256;8.176;2023-04-24T13:31:46;9.60;78.30
14727;DHT22;7454;51.256;8.176;2023-04-24T13:34:12;9.40;78.50
14727;DHT22;7454;51.256;8.176;2023-04-24T13:36:41;9.60;78.70
14727;DHT22;7454;51.256;8.176;2023-04-24T13:39:07;9.50;79.00
14727;DHT22;7454;51.256;8.176;2023-04-24T13:41:33;9.40;78.60
14727;DHT22;7454;51.256;8.176;2023-04-24T13:44:01;9.40;78.50
14727;DHT22;7454;51.256;8.176;2023-04-24T13:46:29;9.40;78.90
14727;DHT22;7454;51.256;8.176;2023-04-24T13:48:55;9.40;78.70
14727;DHT22;7454;51.256;8.176;2023-04-24T13:51:22;9.50;78.60
14727;DHT22;7454;51.256;8.176;2023-04-24T13:53:49;9.50;78.70
14727;DHT22;7454;51.256;8.176;2023-04-24T13:56:15;9.50;78.50
14727;DHT22;7454;51.256;8.176;2023-04-24T13:58:40;9.40;78.50
14727;DHT22;7454;51.256;8.176;2023-04-24T14:01:06;9.40;78.40
14727;DHT22;7454;51.256;8.176;2023-04-24T14:03:33;9.30;78.50
14727;DHT22;7454;51.256;8.176;2023-04-24T14:05:59;9.30;78.40
14727;DHT22;7454;51.256;8.176;2023-04-24T14:08:24;9.30;78.20
14727;DHT22;7454;51.256;8.176;2023-04-24T14:10:50;9.30;78.30
14727;DHT22;7454;51.256;8.176;2023-04-24T14:13:16;9.40;78.60
14727;DHT22;7454;51.256;8.176;2023-04-24T14:15:42;9.50;78.60
14727;DHT22;7454;51.256;8.176;2023-04-24T14:18:08;9.40;78.30
14727;DHT22;7454;51.256;8.176;2023-04-24T14:20:35;9.60;78.30
14727;DHT22;7454;51.256;8.176;2023-04-24T14:23:00;9.60;78.00
14727;DHT22;7454;51.256;8.176;2023-04-24T14:25:31;9.60;78.10
14727;DHT22;7454;51.256;8.176;2023-04-24T14:27:56;9.60;77.90
14727;DHT22;7454;51.256;8.176;2023-04-24T14:30:23;9.70;77.50
14727;DHT22;7454;51.256;8.176;2023-04-24T14:32:49;9.60;77.70
14727;DHT22;7454;51.256;8.176;2023-04-24T14:35:15;9.60;77.70
14727;DHT22;7454;51.256;8.176;2023-04-24T14:37:41;9.60;77.90
14727;DHT22;7454;51.256;8.176;2023-04-24T14:40:08;9.70;77.90
14727;DHT22;7454;51.256;8.176;2023-04-24T14:42:34;9.60;77.60
14727;DHT22;7454;51.256;8.176;2023-04-24T14:45:01;9.60;77.90
14727;DHT22;7454;51.256;8.176;2023-04-24T14:47:27;9.60;77.80
14727;DHT22;7454;51.256;8.176;2023-04-24T14:49:53;9.60;77.90
14727;DHT22;7454;51.256;8.176;2023-04-24T14:52:19;9.50;77.70
14727;DHT22;7454;51.256;8.176;2023-04-24T14:54:45;9.50;77.80
14727;DHT22;7454;51.256;8.176;2023-04-24T14:57:11;9.50;77.80
14727;DHT22;7454;51.256;8.176;2023-04-24T14:59:36;9.50;77.80
14727;DHT22;7454;51.256;8.176;2023-04-24T15:02:02;9.50;78.00
14727;DHT22;7454;51.256;8.176;2023-04-24T15:04:28;9.50;77.90
14727;DHT22;7454;51.256;8.176;2023-04-24T15:06:56;9.50;78.00
14727;DHT22;7454;51.256;8.176;2023-04-24T15:09:22;9.50;77.70
14727;DHT22;7454;51.256;8.176;2023-04-24T15:11:51;9.70;77.60
14727;DHT22;7454;51.256;8.176;2023-04-24T15:14:19;9.50;77.60
14727;DHT22;7454;51.256;8.176;2023-04-24T15:16:45;9.60;77.70
14727;DHT22;7454;51.256;8.176;2023-04-24T15:19:14;9.50;77.60
14727;DHT22;7454;51.256;8.176;2023-04-24T15:21:39;9.50;77.40
14727;DHT22;7454;51.256;8.176;2023-04-24T15:24:09;9.50;77.00
14727;DHT22;7454;51.256;8.176;2023-04-24T15:26:35;9.40;77.00
14727;DHT22;7454;51.256;8.176;2023-04-24T15:29:02;9.60;77.20
14727;DHT22;7454;51.256;8.176;2023-04-24T15:31:27;9.40;77.00
14727;DHT22;7454;51.256;8.176;2023-04-24T15:33:54;9.40;77.40
14727;DHT22;7454;51.256;8.176;2023-04-24T15:36:19;9.40;77.40
14727;DHT22;7454;51.256;8.176;2023-04-24T15:38:46;9.50;77.30
14727;DHT22;7454;51.256;8.176;2023-04-24T15:41:12;9.50;77.20
14727;DHT22;7454;51.256;8.176;2023-04-24T15:43:38;9.60;77.10
14727;DHT22;7454;51.256;8.176;2023-04-24T15:46:06;9.60;77.30
14727;DHT22;7454;51.256;8.176;2023-04-24T15:48:32;9.60;77.20
14727;DHT22;7454;51.256;8.176;2023-04-24T15:50:58;9.60;77.10
14727;DHT22;7454;51.256;8.176;2023-04-24T15:53:25;9.70;77.20
14727;DHT22;7454;51.256;8.176;2023-04-24T15:55:52;9.80;76.90
14727;DHT22;7454;51.256;8.176;2023-04-24T15:58:19;9.90;77.20
14727;DHT22;7454;51.256;8.176;2023-04-24T16:00:46;9.90;77.00
14727;DHT22;7454;51.256;8.176;2023-04-24T16:03:12;10.00;76.80
14727;DHT22;7454;51.256;8.176;2023-04-24T16:05:38;10.10;76.50
14727;DHT22;7454;51.256;8.176;2023-04-24T16:08:04;10.00;76.10
14727;DHT22;7454;51.256;8.176;2023-04-24T16:10:30;10.00;76.10
14727;DHT22;7454;51.256;8.176;2023-04-24T16:12:57;10.00;76.20
14727;DHT22;7454;51.256;8.176;2023-04-24T16:15:25;10.10;76.60
14727;DHT22;7454;51.256;8.176;2023-04-24T16:17:51;10.10;76.20